Date,TemperatureHighF,TemperatureAvgF,TemperatureLowF,DewpointHighF,DewpointAvgF,DewpointLowF,HumidityHigh,HumidityAvg,HumidityLow,PressureMaxIn,PressureMinIn,WindSpeedMaxMPH,WindSpeedAvgMPH,GustSpeedMaxMPH,PrecipitationSumIn
2013-1-1,23,16,7,14,9,3,83,73,60,30.16,29.99,24,8,29,0.00
2013-1-2,21,17,13,17,13,9,88,83,73,30.21,29.99,15,7,21,0.00
2013-1-3,29,24,16,26,20,13,93,85,72,30.15,29.90,23,6,26,0.00
2013-1-4,32,30,29,26,24,23,86,79,69,30.06,29.78,28,13,36,0.00
2013-1-5,32,28,23,28,23,18,90,80,70,30.25,29.90,12,5,24,0.00
2013-1-6,31,25,13,29,21,9,95,85,70,30.29,29.84,16,7,19,0.00
2013-1-7,38,30,16,31,24,12,91,78,68,30.32,29.91,20,7,30,0.00
2013-1-8,40,36,34,33,31,29,91,83,66,30.17,29.94,19,7,22,0.00
2013-1-9,39,36,33,33,30,26,93,79,71,30.37,29.81,24,10,34,0.03
2013-1-10,39,35,27,34,29,24,90,81,69,30.57,30.25,17,6,22,0.00
2013-1-11,43,38,36,42,37,33,97,94,85,30.24,29.70,24,6,24,0.53
2013-1-12,53,42,35,46,39,31,97,88,68,29.97,29.67,18,6,28,0.00
2013-1-13,36,32,29,32,30,26,95,92,85,29.95,29.85,8,3,13,0.01
2013-1-14,29,24,21,27,17,13,92,75,59,30.37,29.91,16,7,22,0.01
2013-1-15,28,24,16,21,16,9,87,72,57,30.39,30.09,22,8,25,0.00
2013-1-16,31,28,18,27,22,11,89,78,68,30.08,29.59,30,12,40,0.00
2013-1-17,17,8,1,10,2,-4,83,76,59,30.32,29.99,23,8,29,0.00
2013-1-18,29,17,5,27,13,2,94,83,70,30.36,29.79,13,4,20,0.00
2013-1-19,35,27,22,34,25,20,97,93,90,29.88,29.36,21,5,34,0.16
2013-1-20,28,11,5,26,7,0,91,81,70,30.16,29.38,27,12,37,0.16
2013-1-21,10,7,3,6,2,-3,88,82,76,30.14,29.90,19,6,21,0.00
2013-1-22,2,-8,-16,-2,-14,-21,83,75,62,30.31,30.05,14,5,18,0.00
2013-1-23,8,1,-12,4,-3,-16,87,84,78,30.32,30.14,14,5,16,0.00
2013-1-24,5,-1,-6,-3,-7,-11,86,75,63,30.70,30.56,11,4,14,0.00
2013-1-25,20,11,-3,17,8,-6,91,87,82,30.56,30.09,13,4,19,0.00
2013-1-26,21,11,1,14,8,-2,90,85,69,30.49,30.13,8,2,11,0.01
2013-1-27,29,21,2,27,18,-1,93,86,78,30.51,30.21,15,3,21,0.00
2013-1-28,32,30,26,31,29,24,97,96,93,30.19,29.86,15,6,19,0.00
2013-1-29,46,33,24,45,32,23,98,96,95,30.05,29.49,14,6,26,0.19
2013-1-30,37,30,13,36,29,11,97,96,91,29.49,29.08,22,10,28,0.53
2013-1-31,12,7,4,10,3,-2,91,83,77,29.88,29.15,27,14,29,0.00
2013-2-1,13,6,0,9,1,-5,90,80,73,30.17,29.89,12,6,16,0.00
2013-2-2,12,7,-5,9,2,-8,90,80,64,30.12,30.07,12,4,14,0.00
2013-2-3,18,9,-6,15,6,-10,90,85,75,30.08,29.82,13,5,18,0.00
2013-2-4,10,3,-5,4,-2,-9,88,78,70,30.07,29.97,9,3,13,0.00
2013-2-5,22,14,-1,20,10,-5,91,86,75,29.98,29.75,14,4,20,0.00
2013-2-6,13,5,-6,9,1,-9,89,81,72,30.37,29.99,14,4,17,0.00
2013-2-7,12,9,6,9,7,3,90,89,87,30.40,30.28,22,11,27,0.00
2013-2-8,19,11,1,13,7,-3,90,82,76,30.47,30.25,15,7,22,0.00
2013-2-9,25,7,-10,21,3,-14,95,84,76,30.54,30.31,10,3,18,0.00
2013-2-10,34,28,19,31,24,17,95,87,77,30.32,29.70,23,7,27,0.01
2013-2-11,38,34,28,37,33,24,97,94,86,29.69,29.39,20,8,32,0.04
2013-2-12,28,26,25,24,22,20,88,84,76,29.93,29.68,20,8,28,0.04
2013-2-13,35,29,22,30,25,20,94,86,81,29.87,29.69,11,3,17,0.00
2013-2-14,35,30,23,33,29,22,97,94,91,29.75,29.65,18,4,24,0.02
2013-2-15,25,16,12,24,11,7,94,82,70,30.15,29.75,21,10,25,0.02
2013-2-16,13,5,-4,9,0,-7,89,79,62,30.22,30.13,9,2,13,0.00
2013-2-17,13,-1,-12,4,-6,-16,88,79,62,30.30,30.21,8,2,12,0.00
2013-2-18,33,25,7,32,20,4,95,81,73,30.23,29.61,27,10,38,0.00
2013-2-19,37,28,10,36,26,4,95,89,77,29.76,29.22,29,13,37,1.30
2013-2-20,12,8,4,6,2,-3,82,76,73,30.36,29.77,26,17,30,0.00
2013-2-21,18,8,2,14,3,-5,93,80,74,30.54,30.36,24,8,27,0.00
2013-2-22,28,18,10,27,16,8,94,89,84,30.47,29.91,23,12,32,0.00
2013-2-23,33,29,26,30,27,24,95,92,84,29.90,29.81,8,2,11,0.01
2013-2-24,33,28,23,27,25,20,94,87,75,30.16,29.86,15,6,17,0.03
2013-2-25,32,29,26,28,26,23,91,87,78,30.25,30.16,5,2,8,0.02
2013-2-26,32,30,28,28,26,25,93,87,79,30.25,29.92,19,8,23,0.00
2013-2-27,33,31,29,31,29,26,95,92,86,29.91,29.74,17,10,23,0.01
2013-2-28,33,27,17,31,24,13,93,87,80,30.13,29.73,19,11,22,0.01
2013-3-1,24,17,13,18,12,9,85,81,70,30.27,30.12,17,12,20,0.00
2013-3-2,24,16,9,14,10,5,85,78,61,30.26,30.14,19,9,21,0.00
2013-3-3,22,13,4,12,7,0,88,79,62,30.16,30.09,12,6,15,0.00
2013-3-4,28,15,4,13,7,0,89,72,49,30.22,30.14,13,5,14,0.00
2013-3-5,30,20,10,26,15,6,88,80,66,30.25,30.12,10,4,17,0.00
2013-3-6,34,30,27,30,27,24,94,87,83,30.27,30.16,9,4,14,0.00
2013-3-7,34,29,25,27,25,22,94,86,76,30.44,30.25,15,9,20,0.00
2013-3-8,36,29,19,31,26,18,95,90,81,30.54,30.42,8,2,11,0.00
2013-3-9,40,32,21,32,29,20,96,89,64,30.42,30.10,18,6,23,0.01
2013-3-10,38,36,33,37,34,32,97,95,93,29.98,29.86,10,3,23,0.19
2013-3-11,45,37,33,44,36,32,97,96,93,29.94,29.39,20,6,24,0.11
2013-3-12,37,29,22,37,26,20,97,89,76,29.87,29.39,15,7,27,0.21
2013-3-13,23,20,15,20,14,9,91,78,63,30.17,29.86,25,12,33,0.00
2013-3-14,30,22,12,23,9,-1,75,59,39,30.28,30.01,17,8,22,0.00
2013-3-15,32,26,19,29,19,10,92,76,59,30.03,29.80,24,13,30,0.00
2013-3-16,19,13,8,12,4,1,82,67,54,30.09,30.02,13,7,18,0.00
2013-3-17,22,13,6,17,4,-3,89,69,46,30.43,30.05,21,8,26,0.00
2013-3-18,34,20,3,26,15,0,94,83,57,30.34,29.60,27,10,34,0.00
2013-3-19,31,28,24,29,25,19,96,90,81,29.76,29.47,20,10,30,0.02
2013-3-20,28,24,19,24,19,15,91,82,69,29.82,29.76,20,10,25,0.01
2013-3-21,29,24,20,24,18,15,91,78,62,29.89,29.79,18,11,27,0.00
2013-3-22,35,25,16,23,19,13,87,77,59,30.04,29.89,17,10,22,0.01
2013-3-23,39,29,19,24,22,16,91,76,54,30.13,30.04,18,7,24,0.01
2013-3-24,33,28,23,25,21,19,84,76,60,30.13,29.91,16,4,23,0.00
2013-3-25,39,33,28,30,28,24,86,80,61,29.99,29.88,14,7,18,0.00
2013-3-26,41,35,31,29,26,19,81,71,42,30.08,29.99,16,9,25,0.00
2013-3-27,41,35,31,30,28,25,88,74,57,30.19,30.06,16,10,23,0.00
2013-3-28,45,37,32,31,27,13,88,71,38,30.25,30.19,17,7,21,0.00
2013-3-29,45,35,28,31,25,19,87,69,41,30.29,30.21,14,5,20,0.00
2013-3-30,45,36,25,34,25,20,89,68,37,30.23,29.86,15,4,24,0.00
2013-3-31,40,36,26,37,34,21,96,91,81,29.85,29.56,16,5,27,0.21
2013-4-1,26,21,18,21,15,10,88,76,59,30.07,29.65,26,15,34,0.00
2013-4-2,27,21,17,18,14,9,89,76,62,30.25,30.06,27,11,32,0.00
2013-4-3,33,25,18,22,14,8,89,64,37,30.43,30.25,23,8,25,0.00
2013-4-4,39,33,24,33,26,18,94,79,57,30.30,29.93,17,7,28,0.08
2013-4-5,32,28,24,27,19,14,86,69,52,30.27,29.99,21,11,27,0.00
2013-4-6,34,28,18,33,24,15,96,84,64,30.29,29.78,22,8,32,0.09
2013-4-7,40,37,34,37,33,29,94,86,75,30.07,29.44,22,9,37,0.47
2013-4-8,39,34,31,32,31,29,95,86,73,30.10,29.91,17,6,24,0.07
2013-4-9,39,36,33,35,33,32,95,92,86,30.15,30.02,12,4,15,0.07
2013-4-10,42,35,29,32,28,23,92,79,47,30.19,30.09,9,4,13,0.00
2013-4-11,33,29,25,27,19,14,82,66,56,30.26,30.03,26,13,36,0.00
2013-4-12,30,28,25,28,25,19,95,90,64,30.02,29.73,34,13,34,0.00
2013-4-13,38,32,28,31,28,26,95,88,69,29.90,29.73,13,4,23,0.04
2013-4-14,41,33,28,31,28,26,90,82,61,30.14,29.91,11,6,14,0.01
2013-4-15,48,39,33,47,35,28,97,86,69,30.11,29.84,23,8,27,0.13
2013-4-16,47,39,33,45,33,30,92,80,63,30.33,29.85,19,9,26,0.13
2013-4-17,44,36,29,32,30,26,94,78,58,30.50,30.20,13,5,16,0.00
2013-4-18,40,36,34,39,34,28,97,93,70,30.22,29.56,19,7,26,0.03
2013-4-19,48,38,29,47,35,24,97,88,69,29.54,29.25,28,9,38,0.27
2013-4-20,30,25,19,23,17,10,81,71,59,30.49,29.55,24,14,33,0.00
2013-4-21,36,29,16,29,22,14,92,75,48,30.70,30.49,20,6,24,0.00
2013-4-22,45,40,34,35,32,29,86,73,56,30.51,30.22,20,10,26,0.00
2013-4-23,45,40,32,42,35,31,94,82,61,30.22,29.84,20,9,30,0.37
2013-4-24,41,35,32,32,30,22,94,81,61,30.03,29.86,16,9,20,0.39
2013-4-25,39,34,28,37,30,22,95,85,63,30.29,29.99,17,6,24,0.01
2013-4-26,50,39,26,38,32,25,94,78,52,30.40,30.24,23,5,29,0.02
2013-4-27,58,43,32,48,38,30,96,85,61,30.27,30.12,16,4,18,0.06
2013-4-28,60,47,32,46,39,31,96,76,52,30.12,29.91,18,5,22,0.00
2013-4-29,55,48,40,50,46,38,97,92,83,29.92,29.87,14,5,18,0.08
2013-4-30,55,49,43,51,47,43,97,93,86,29.98,29.88,19,10,27,0.11
2013-5-1,64,52,43,54,47,40,94,84,64,30.25,29.96,12,5,17,0.00
2013-5-2,67,50,38,53,42,36,94,76,41,30.32,30.18,11,3,20,0.00
2013-5-3,68,52,37,44,40,35,92,67,40,30.21,30.13,20,6,26,0.00
2013-5-4,63,52,39,47,42,38,95,71,43,30.19,30.14,16,4,21,0.00
2013-5-5,68,49,36,45,39,34,96,74,32,30.18,30.09,11,3,14,0.00
2013-5-6,70,49,36,45,40,35,94,74,37,30.14,30.03,9,2,11,0.00
2013-5-7,69,50,35,46,37,27,94,66,21,30.14,30.05,6,2,10,0.00
2013-5-8,75,51,37,47,38,32,87,65,30,30.08,29.96,12,2,13,0.00
2013-5-9,61,51,42,48,42,37,86,74,56,30.08,29.92,13,3,15,0.00
2013-5-10,42,38,36,37,35,34,94,89,79,30.10,29.95,18,9,23,0.67
2013-5-11,52,40,33,37,34,31,94,81,55,29.95,29.66,17,6,27,0.19
2013-5-12,37,34,31,34,31,30,95,91,86,30.02,29.58,27,15,35,0.32
2013-5-13,47,40,33,32,28,21,88,65,37,30.14,30.01,22,9,26,0.00
2013-5-14,49,43,38,39,36,29,93,77,65,30.09,29.75,24,8,32,0.00
2013-5-15,65,52,43,47,41,36,87,70,34,29.75,29.48,26,12,37,0.00
2013-5-16,58,52,46,43,40,37,75,63,53,30.08,29.70,15,7,26,0.00
2013-5-17,61,48,38,42,38,36,90,71,41,30.25,30.08,11,3,17,0.00
2013-5-18,65,51,36,45,39,34,93,68,39,30.27,30.08,16,4,19,0.00
2013-5-19,67,56,45,50,45,41,88,68,52,30.09,29.88,15,4,18,0.00
2013-5-20,59,54,46,55,50,42,92,85,78,29.96,29.82,26,13,34,0.00
2013-5-21,55,50,46,54,49,45,98,96,92,29.85,29.72,21,9,24,0.02
2013-5-22,54,50,46,53,50,46,98,98,96,29.75,29.70,10,4,14,0.22
2013-5-23,47,43,38,46,38,31,98,84,72,30.26,29.74,17,10,22,0.38
2013-5-24,53,44,37,38,32,28,75,65,50,30.40,30.26,17,8,22,0.00
2013-5-25,58,46,34,39,35,31,94,67,41,30.47,30.30,14,4,17,0.00
2013-5-26,63,49,33,41,35,31,94,63,35,30.40,30.22,10,3,15,0.00
2013-5-27,66,52,38,46,35,27,86,57,25,30.26,30.07,15,4,15,0.00
2013-5-28,57,50,43,53,44,32,97,80,53,30.06,29.77,22,5,24,0.24
2013-5-29,65,56,46,58,53,45,98,91,78,29.94,29.74,18,4,20,0.28
2013-5-30,76,62,50,66,58,49,96,85,70,29.97,29.84,14,5,19,0.00
2013-5-31,78,66,55,66,61,54,96,84,63,29.85,29.73,13,4,18,0.00
2013-6-1,72,60,54,66,58,52,97,91,76,29.74,29.62,8,2,22,0.31
2013-6-2,60,51,42,56,48,37,96,88,75,29.97,29.54,24,8,31,0.46
2013-6-3,52,46,39,42,38,35,88,73,61,30.10,29.96,24,12,33,0.00
2013-6-4,64,51,36,44,38,33,90,63,37,30.23,30.10,13,4,20,0.00
2013-6-5,55,50,45,47,43,37,89,79,59,30.26,30.14,14,6,18,0.00
2013-6-6,66,56,48,47,43,38,89,65,35,30.14,29.96,15,5,19,0.00
2013-6-7,66,55,41,52,46,39,94,74,54,29.99,29.89,10,3,15,0.00
2013-6-8,67,56,44,51,46,41,94,72,39,30.04,29.90,7,2,10,0.00
2013-6-9,71,59,47,54,47,41,87,67,36,30.14,30.04,10,3,15,0.00
2013-6-10,61,56,50,57,53,47,97,90,78,30.05,29.82,14,5,18,0.39
2013-6-11,67,59,56,64,58,55,98,96,85,29.86,29.80,9,2,9,0.13
2013-6-12,73,61,54,61,55,52,98,84,54,29.88,29.72,11,4,18,0.13
2013-6-13,70,61,53,59,55,51,94,82,63,29.96,29.68,17,5,24,0.03
2013-6-14,69,58,52,51,42,32,77,57,29,30.12,29.98,13,6,17,0.03
2013-6-15,67,58,44,54,43,37,85,61,33,30.03,29.81,9,2,12,0.00
2013-6-16,72,61,53,63,56,49,97,85,65,29.83,29.68,14,4,21,0.55
2013-6-17,63,56,50,54,50,47,92,81,62,30.00,29.76,11,5,14,0.00
2013-6-18,67,57,45,50,44,37,96,65,37,30.12,30.00,13,4,17,0.00
2013-6-19,69,57,42,53,45,40,95,67,37,30.18,30.08,9,3,16,0.00
2013-6-20,70,60,52,56,50,41,83,70,56,30.16,30.09,8,3,12,0.00
2013-6-21,66,61,56,60,56,52,95,82,72,30.15,29.94,15,4,20,0.52
2013-6-22,68,62,58,64,60,57,97,94,86,30.05,29.90,8,2,13,0.64
2013-6-23,70,62,57,65,60,56,98,93,85,30.01,29.85,9,2,14,0.00
2013-6-24,82,71,59,70,66,58,98,82,64,29.91,29.79,18,4,24,0.00
2013-6-25,79,70,63,69,66,61,96,86,70,29.81,29.72,14,5,21,0.01
2013-6-26,83,71,61,68,62,58,96,75,48,29.77,29.70,8,3,13,0.00
2013-6-27,72,66,64,67,63,60,95,90,67,29.73,29.62,9,2,13,0.12
2013-6-28,66,64,62,64,62,61,97,95,92,29.64,29.57,12,4,15,0.70
2013-6-29,75,66,60,63,59,56,93,77,56,29.73,29.59,12,6,14,0.00
2013-6-30,78,68,60,59,49,35,81,54,23,29.98,29.74,9,4,13,0.00
2013-7-1,71,63,52,58,49,42,94,63,36,30.17,29.98,17,5,22,0.00
2013-7-2,70,62,52,53,50,45,90,64,44,30.16,30.06,12,4,15,0.00
2013-7-3,74,64,52,59,53,48,94,69,42,30.11,30.01,9,3,14,0.00
2013-7-4,74,68,63,65,62,59,93,82,68,30.03,29.97,13,4,18,0.00
2013-7-5,80,70,58,65,61,57,96,76,57,30.03,29.94,14,3,16,0.00
2013-7-6,83,72,60,67,63,58,93,73,54,29.99,29.91,10,4,15,0.00
2013-7-7,81,71,60,69,65,59,95,81,63,29.92,29.85,10,2,12,0.03
2013-7-8,70,66,64,68,64,62,96,93,89,29.97,29.90,13,6,18,0.05
2013-7-9,73,68,64,70,66,63,97,94,86,29.95,29.71,10,2,16,0.02
2013-7-10,70,66,61,68,62,55,97,86,71,29.86,29.56,20,9,30,0.03
2013-7-11,72,63,58,57,55,53,89,76,54,30.07,29.85,14,6,18,0.00
2013-7-12,76,65,53,57,54,50,92,69,44,30.16,30.05,10,4,16,0.00
2013-7-13,77,68,56,64,60,55,96,76,55,30.18,30.10,11,4,21,0.00
2013-7-14,81,72,63,66,62,59,89,74,51,30.23,30.17,12,4,14,0.00
2013-7-15,87,73,61,71,65,60,95,79,49,30.25,30.18,7,2,12,0.00
2013-7-16,90,77,64,73,68,62,93,75,51,30.23,30.10,8,3,15,0.00
2013-7-17,89,79,72,75,72,66,92,79,54,30.12,30.01,16,5,23,0.04
2013-7-18,80,73,69,73,70,68,96,89,74,30.03,29.68,13,4,36,0.64
2013-7-19,79,70,63,73,66,60,96,88,68,29.73,29.55,19,7,42,1.76
2013-7-20,69,64,61,61,57,52,92,77,55,29.95,29.66,22,9,23,0.00
2013-7-21,68,62,53,55,52,49,90,71,56,30.04,29.94,11,4,14,0.00
2013-7-22,73,67,58,67,61,54,90,83,72,29.95,29.58,21,6,24,0.00
2013-7-23,73,63,57,67,57,47,92,79,69,29.89,29.54,26,12,31,0.04
2013-7-24,69,60,49,54,50,45,88,70,51,30.02,29.89,17,8,20,0.00
2013-7-25,69,61,52,58,55,50,96,80,60,30.06,29.99,19,5,23,0.00
2013-7-26,70,64,60,63,60,56,96,89,77,30.00,29.82,15,6,22,0.48
2013-7-27,66,62,57,61,59,56,96,91,82,29.82,29.68,10,4,14,0.11
2013-7-28,64,57,52,57,54,51,95,87,68,29.86,29.66,11,4,19,0.01
2013-7-29,67,59,51,59,55,50,96,87,74,30.11,29.85,14,5,18,0.02
2013-7-30,72,62,52,61,56,50,94,80,50,30.18,30.08,14,3,16,0.00
2013-7-31,74,64,56,64,59,54,96,84,57,30.08,29.84,12,4,23,0.27
2013-8-1,69,61,56,61,58,55,97,88,68,29.85,29.79,10,4,16,0.29
2013-8-2,67,60,53,61,57,52,96,87,74,29.83,29.75,14,4,20,0.12
2013-8-3,66,60,55,57,54,53,94,83,67,30.00,29.84,20,8,26,0.00
2013-8-4,68,61,56,55,52,49,91,73,55,30.13,30.00,17,9,25,0.00
2013-8-5,68,60,48,59,53,46,94,81,61,30.07,29.88,14,4,18,0.00
2013-8-6,69,64,60,64,61,57,94,89,82,29.88,29.75,12,4,17,0.02
2013-8-7,72,66,60,67,63,57,97,89,77,29.88,29.62,20,6,21,1.55
2013-8-8,71,63,56,58,55,50,94,77,49,30.01,29.89,12,4,18,0.00
2013-8-9,71,61,55,63,55,48,94,80,68,29.98,29.81,25,5,30,0.01
2013-8-10,69,60,50,56,52,47,92,76,59,30.09,29.98,13,6,20,0.01
2013-8-11,71,61,51,61,55,49,96,81,56,30.07,29.96,11,3,16,0.00
2013-8-12,69,62,58,63,59,55,96,90,72,29.97,29.80,14,3,20,0.10
2013-8-13,58,55,53,55,49,47,88,79,72,30.04,29.82,24,16,29,0.10
2013-8-14,65,59,53,54,51,48,89,76,54,30.11,30.04,15,8,22,0.00
2013-8-15,72,62,54,59,54,52,94,76,51,30.05,29.99,14,6,19,0.00
2013-8-16,75,62,50,61,54,49,95,77,43,30.16,30.05,10,3,12,0.00
2013-8-17,77,65,52,63,57,49,94,75,53,30.23,30.12,12,4,14,0.00
2013-8-18,80,69,55,60,56,53,94,66,44,30.16,30.02,14,4,20,0.00
2013-8-19,77,68,58,63,59,54,90,74,60,30.03,29.91,12,4,16,0.00
2013-8-20,82,71,66,69,59,-100,90,75,62,29.98,29.91,12,-10,18,0.00
2013-8-21,85,75,66,71,67,62,90,75,58,29.96,29.79,14,4,24,0.00
2013-8-22,77,71,65,68,59,50,92,69,41,30.04,29.81,16,7,22,0.00
2013-8-23,72,65,60,60,57,51,88,76,49,30.18,30.04,11,4,13,0.00
2013-8-24,71,64,51,63,59,50,96,84,73,30.28,30.16,12,4,15,0.00
2013-8-25,70,66,64,69,59,-100,96,83,73,30.16,29.91,18,-8,26,0.49
2013-8-26,81,71,67,72,61,-100,96,83,75,29.96,29.86,16,-22,23,0.01
2013-8-27,79,69,64,72,67,63,98,92,77,29.88,29.80,7,2,10,0.01
2013-8-28,82,69,60,72,66,59,98,90,69,29.97,29.82,9,2,10,0.01
2013-8-29,80,69,61,72,66,61,97,89,70,30.02,29.89,7,2,11,0.01
2013-8-30,73,70,67,70,67,64,96,89,75,29.89,29.66,16,4,19,0.42
2013-8-31,71,65,59,65,61,58,95,87,75,29.85,29.78,12,4,16,0.42
2013-9-1,69,65,57,65,62,56,98,92,84,29.83,29.64,12,3,17,0.01
2013-9-2,65,57,52,62,53,51,94,88,81,29.82,29.65,22,10,29,0.01
2013-9-3,69,62,56,57,53,49,86,73,49,29.91,29.82,24,11,27,0.00
2013-9-4,65,60,54,60,52,46,88,76,55,30.09,29.82,18,8,24,0.00
2013-9-5,60,54,48,49,43,36,86,68,48,30.30,30.09,17,7,22,0.00
2013-9-6,67,58,45,59,52,44,95,80,54,30.20,29.93,12,3,19,0.30
2013-9-7,71,64,59,67,62,58,97,94,88,29.93,29.83,8,2,14,0.05
2013-9-8,62,56,51,56,47,-100,90,76,63,30.16,0.00,11,-18,15,0.00
2013-9-9,66,59,50,62,56,48,94,88,79,30.06,29.72,16,4,18,0.00
2013-9-10,82,71,63,73,67,61,97,89,71,29.87,29.70,16,5,23,0.28
2013-9-11,74,67,64,67,64,62,96,90,77,29.91,29.84,11,4,15,0.05
2013-9-12,65,61,51,64,56,45,97,85,72,30.01,29.78,23,10,29,0.12
2013-9-13,57,49,43,47,41,37,92,74,55,30.16,30.01,18,9,22,0.00
2013-9-14,62,52,40,54,47,39,96,85,70,30.14,29.97,12,3,20,0.00
2013-9-15,60,56,47,58,53,43,95,90,84,30.18,29.94,17,6,21,0.22
2013-9-16,55,46,40,44,39,36,92,75,53,30.43,30.19,15,6,21,0.22
2013-9-17,57,48,36,53,44,35,96,85,61,30.44,30.19,10,3,16,0.00
2013-9-18,66,59,53,58,54,49,94,83,65,30.18,29.94,17,5,17,0.01
2013-9-19,71,66,61,65,61,57,92,85,76,29.95,29.78,11,5,17,0.01
2013-9-20,70,66,60,68,64,58,95,93,90,29.77,29.58,14,6,26,0.18
2013-9-21,60,53,48,58,47,42,91,80,67,29.85,29.62,26,13,32,0.18
2013-9-22,53,44,43,43,35,-100,90,76,62,30.10,29.86,17,-26,19,0.00
2013-9-23,56,47,39,45,42,37,95,83,62,30.23,30.10,9,3,10,0.00
2013-9-24,59,49,38,52,45,37,97,86,65,30.19,30.03,8,2,10,0.00
2013-9-25,63,49,37,53,45,36,97,87,66,30.08,30.02,5,2,8,0.01
2013-9-26,65,52,41,59,49,40,97,91,72,30.15,30.04,6,2,6,0.01
2013-9-27,69,56,42,58,50,42,97,81,51,30.23,30.14,10,3,13,0.01
2013-9-28,65,61,57,60,58,54,96,88,82,30.18,29.89,22,7,27,0.01
2013-9-29,62,58,48,58,53,46,95,84,63,29.99,29.82,16,6,28,0.37
2013-9-30,65,54,42,55,49,41,97,86,51,30.00,29.86,7,2,11,0.01
2013-10-1,74,64,55,62,57,52,92,80,66,29.87,29.67,16,5,20,0.00
2013-10-2,67,60,53,61,48,44,94,66,46,30.05,29.76,16,6,22,0.00
2013-10-3,60,54,44,55,49,42,96,85,70,30.07,29.98,14,4,18,0.01
2013-10-4,60,58,56,55,53,50,89,83,77,30.12,29.96,17,9,23,0.04
2013-10-5,58,52,49,51,47,43,90,81,72,30.15,29.98,26,12,26,0.28
2013-10-6,63,57,51,62,55,48,98,95,88,29.97,29.54,16,6,23,0.21
2013-10-7,55,51,45,54,48,43,95,88,73,30.01,29.49,22,8,29,0.32
2013-10-8,60,52,39,54,46,37,96,82,55,30.24,30.02,13,5,16,0.00
2013-10-9,69,59,54,56,52,48,88,77,58,30.24,30.16,14,5,22,0.00
2013-10-10,66,55,45,57,50,44,97,84,61,30.21,30.13,9,2,14,0.00
2013-10-11,64,53,43,57,50,42,98,90,66,30.19,30.08,9,2,12,0.01
2013-10-12,65,59,49,57,54,47,96,85,71,30.08,29.97,17,6,30,0.02
2013-10-13,62,54,48,58,48,42,91,80,73,30.36,29.97,15,6,22,0.00
2013-10-14,57,49,39,46,42,38,94,77,52,30.45,30.31,20,6,23,0.00
2013-10-15,58,48,36,53,45,34,97,90,78,30.31,29.76,18,4,26,0.42
2013-10-16,57,53,49,56,51,46,96,92,86,29.78,29.62,17,6,19,0.51
2013-10-17,49,48,45,46,45,43,94,90,84,29.84,29.72,13,5,19,0.07
2013-10-18,53,47,40,46,43,38,93,85,73,29.80,29.72,11,4,19,0.00
2013-10-19,49,46,40,45,40,32,95,81,58,29.79,29.64,14,5,22,0.02
2013-10-20,50,43,32,43,38,30,97,82,60,29.85,29.71,9,3,17,0.02
2013-10-21,49,44,35,47,42,32,96,90,79,29.77,29.61,15,6,25,0.14
2013-10-22,44,37,31,36,33,29,96,83,63,29.84,29.64,21,8,33,0.38
2013-10-23,41,36,32,35,31,26,90,80,64,29.85,29.79,19,8,27,0.05
2013-10-24,43,40,36,37,34,33,90,81,72,30.09,29.80,23,10,25,0.00
2013-10-25,45,40,32,36,32,28,91,75,57,30.21,29.83,17,7,26,0.03
2013-10-26,46,43,39,41,37,33,92,81,70,29.90,29.54,27,14,34,0.13
2013-10-27,42,38,34,39,35,32,94,88,71,29.97,29.88,10,4,16,0.08
2013-10-28,42,34,29,38,27,21,90,76,54,30.50,29.97,24,8,29,0.08
2013-10-29,36,33,29,32,26,23,93,78,67,30.54,30.28,11,3,14,0.00
2013-10-30,48,41,34,47,39,32,96,94,90,30.27,29.92,13,3,14,0.06
2013-10-31,54,50,48,53,50,46,98,96,93,29.92,29.02,13,4,17,0.17
2013-11-1,54,46,41,53,42,-100,98,90,83,29.66,28.82,18,-14,29,0.02
2013-11-2,41,37,33,38,30,21,90,76,60,30.20,29.66,17,10,20,0.04
2013-11-3,38,33,28,31,24,19,80,68,52,30.50,30.20,13,5,17,0.00
2013-11-4,45,42,37,38,35,29,80,75,70,30.51,30.24,40,12,40,0.00
2013-11-5,54,48,42,47,42,37,96,82,72,30.26,30.06,12,5,22,0.01
2013-11-6,51,46,37,50,44,34,97,93,84,30.06,29.56,26,9,32,0.64
2013-11-7,41,36,33,34,32,30,92,85,68,30.04,29.90,21,8,23,0.02
2013-11-8,38,35,33,32,29,25,91,77,61,30.21,30.04,19,5,25,0.01
2013-11-9,45,40,33,43,37,30,94,89,70,30.14,29.64,16,7,28,0.38
2013-11-10,41,38,31,37,32,28,91,79,66,30.17,29.69,33,14,36,0.04
2013-11-11,40,32,23,36,26,17,93,78,62,30.35,29.92,30,16,40,0.11
2013-11-12,30,26,23,21,18,13,85,74,57,30.52,30.35,31,15,33,0.00
2013-11-13,42,35,28,34,25,17,84,68,55,30.44,29.85,20,8,30,0.00
2013-11-14,44,42,39,38,34,32,89,75,67,29.88,29.82,20,6,30,0.00
2013-11-15,48,42,36,39,38,34,96,84,70,29.97,29.85,8,3,15,0.00
2013-11-16,48,43,33,46,40,31,95,91,82,30.02,29.63,23,8,29,0.09
2013-11-17,53,51,45,52,50,43,97,96,92,29.63,28.89,37,9,38,0.64
2013-11-18,45,33,31,43,14,-100,93,72,72,30.04,29.00,30,-42,39,0.08
2013-11-19,31,26,20,25,21,18,93,82,73,30.45,30.04,29,11,38,0.00
2013-11-20,41,37,24,35,32,22,94,82,69,30.46,30.28,21,7,28,0.00
2013-11-21,42,40,38,38,36,33,94,87,75,30.28,30.19,13,3,19,0.00
2013-11-22,40,32,24,39,30,21,96,90,81,30.34,30.14,24,10,31,0.06
2013-11-23,28,19,15,25,14,8,93,80,70,30.50,30.18,33,21,38,0.00
2013-11-24,22,15,12,18,10,3,88,79,67,30.59,30.25,24,9,28,0.00
2013-11-25,34,31,22,32,26,17,94,81,66,30.25,29.83,24,9,35,0.00
2013-11-26,34,31,25,33,28,19,95,90,76,30.02,29.90,27,10,30,0.02
2013-11-27,25,21,17,20,14,12,88,76,66,30.20,29.98,30,17,32,0.02
2013-11-28,22,18,16,16,12,9,82,75,69,30.52,30.20,15,6,20,0.00
2013-11-29,31,24,15,24,19,12,89,82,70,30.70,30.53,8,3,17,0.00
2013-11-30,34,31,29,32,27,21,96,84,71,30.55,30.07,16,5,27,0.00
2013-12-1,35,31,28,34,27,23,96,85,78,30.17,30.07,18,8,21,0.05
2013-12-2,30,28,24,26,23,19,87,82,78,30.07,29.96,14,6,18,0.01
2013-12-3,28,25,22,25,22,19,92,87,81,30.08,30.02,16,8,21,0.01
2013-12-4,41,29,26,40,28,24,97,94,91,30.08,29.57,23,14,30,0.08
2013-12-5,46,33,22,44,20,-100,97,76,71,30.04,29.47,26,-42,32,0.14
2013-12-6,24,20,16,14,12,9,77,70,62,30.34,30.04,17,10,28,0.00
2013-12-7,21,17,15,11,9,7,78,69,57,30.55,30.34,17,7,23,0.00
2013-12-8,24,17,9,22,10,-1,93,76,57,30.58,30.16,11,4,17,0.00
2013-12-9,28,24,12,27,15,-100,95,84,66,30.15,29.73,23,-17,30,0.00
2013-12-10,17,13,10,15,9,3,92,85,70,30.02,29.82,15,4,22,0.00
2013-12-11,14,11,9,8,4,1,79,74,70,30.33,30.02,17,9,25,0.00
2013-12-12,18,13,9,10,6,2,85,73,64,30.31,30.01,19,10,28,0.00
2013-12-13,16,4,-5,11,-1,-10,88,79,69,30.54,30.01,23,7,28,0.00
2013-12-14,11,8,4,8,4,-2,89,84,71,30.55,30.03,23,11,27,0.00
2013-12-15,14,10,6,9,7,2,90,85,74,30.04,29.78,16,9,19,0.00
2013-12-16,12,4,-5,10,0,-8,90,83,70,30.24,30.04,15,5,17,0.00
2013-12-17,23,21,16,21,19,14,93,90,86,30.06,29.85,19,3,20,0.00
2013-12-18,27,22,19,23,17,13,93,83,69,30.02,29.82,12,5,18,0.00
2013-12-19,30,26,19,26,22,15,90,85,80,30.12,29.76,13,6,19,0.00
2013-12-20,20,18,15,18,15,12,91,89,82,30.10,29.93,15,9,18,0.00
2013-12-21,24,22,19,20,18,16,91,85,77,30.11,29.90,24,9,32,0.00
2013-12-22,22,16,8,17,13,5,92,87,74,30.15,29.91,33,16,34,0.00
2013-12-23,8,6,4,5,2,-2,87,83,77,30.44,30.15,14,6,16,0.00
2013-12-24,4,-2,-12,-2,-6,-16,88,80,71,30.59,30.44,12,4,14,0.00
2013-12-25,24,16,-5,21,13,-9,91,86,80,30.55,30.08,18,6,31,0.00
2013-12-26,25,18,13,17,13,10,90,79,67,30.24,30.04,12,4,20,0.00
2013-12-27,34,21,10,30,16,6,89,83,78,30.28,29.88,12,4,21,0.00
2013-12-28,34,33,27,32,30,25,95,90,85,30.02,29.84,19,4,30,0.01
2013-12-29,26,10,1,24,7,-4,93,86,79,30.09,29.81,20,13,27,0.00
2013-12-30,8,0,-12,6,-4,-16,90,83,73,30.32,30.09,17,4,22,0.00
2013-12-31,11,7,2,6,2,-2,90,80,67,30.32,30.04,19,6,28,0.00
2014-1-1,3,-4,-8,-2,-10,-15,84,75,68,30.59,30.33,13,6,18,0.00
2014-1-2,-2,-8,-14,-8,-14,-18,88,75,68,30.54,30.43,12,5,16,0.00